Time;durP1;ratioP1;P1;durP2;ratioP2;P2;SDS_P1;SDS_P2;PMS_P1;PMS_P2;Temp;Humidity;BMP_temperature;BMP_pressure;BME280_temperature;BME280_humidity;BME280_pressure;Samples;Min_cycle;Max_cycle;Signal;HPM_P1;HPM_P2
2023/08/18 00:01:50;;;;;;;6.35;5.75;;;;;;;27.30;55.23;101037.53;5035638;28;20049;-58
2023/08/18 00:04:17;;;;;;;7.32;5.72;;;;;;;27.29;54.98;101042.13;5035759;28;20495;-58
2023/08/18 00:06:45;;;;;;;6.50;5.88;;;;;;;27.31;55.15;101042.81;5035548;28;20068;-58
2023/08/18 00:09:13;;;;;;;6.72;6.13;;;;;;;27.32;54.82;101047.22;5042476;28;20049;-58
2023/08/18 00:11:40;;;;;;;6.78;6.07;;;;;;;27.33;55.06;101048.06;5035114;28;20503;-58
2023/08/18 00:14:07;;;;;;;6.93;5.82;;;;;;;27.34;54.83;101049.75;5033277;28;20053;-58
2023/08/18 00:16:35;;;;;;;7.10;6.07;;;;;;;27.35;55.22;101048.75;5035514;28;20045;-58
2023/08/18 00:19:02;;;;;;;6.68;5.97;;;;;;;27.36;55.21;101053.16;5035179;28;20048;-58
2023/08/18 00:21:29;;;;;;;7.18;6.47;;;;;;;27.37;54.97;101041.25;5035154;28;20052;-58
2023/08/18 00:23:59;;;;;;;6.45;5.75;;;;;;;27.38;55.21;101042.94;5035839;28;20053;-58
2023/08/18 00:26:27;;;;;;;8.63;5.57;;;;;;;27.38;54.85;101045.66;5034817;28;20045;-58
2023/08/18 00:28:54;;;;;;;8.30;6.80;;;;;;;27.39;55.09;101044.66;5035357;28;20053;-58
2023/08/18 00:31:21;;;;;;;6.60;6.00;;;;;;;27.40;55.10;101046.31;5033668;28;20060;-58
2023/08/18 00:33:49;;;;;;;6.22;5.63;;;;;;;27.42;54.86;101051.56;5034073;28;20057;-58
2023/08/18 00:36:17;;;;;;;6.45;5.85;;;;;;;27.42;55.30;101052.41;5032523;28;20407;-58
2023/08/18 00:38:44;;;;;;;7.03;6.43;;;;;;;27.43;55.25;101053.25;5033610;28;20050;-58
2023/08/18 00:41:12;;;;;;;6.47;5.88;;;;;;;27.44;55.03;101061.25;5032990;28;20504;-58
2023/08/18 00:43:39;;;;;;;6.78;6.18;;;;;;;27.43;55.18;101056.84;5034912;28;20058;-58
2023/08/18 00:46:07;;;;;;;6.35;5.63;;;;;;;27.45;55.03;101062.09;5034745;28;20396;-58
2023/08/18 00:48:37;;;;;;;7.00;6.32;;;;;;;27.46;55.14;101061.06;5034544;28;20046;-58
2023/08/18 00:51:05;;;;;;;7.53;6.03;;;;;;;27.47;55.09;101060.91;5034282;28;20384;-58
2023/08/18 00:53:33;;;;;;;7.22;5.85;;;;;;;27.46;55.18;101064.63;5033965;28;20053;-58
2023/08/18 00:56:01;;;;;;;6.85;6.20;;;;;;;27.48;54.98;101054.44;5034130;28;20052;-58
2023/08/18 00:58:29;;;;;;;7.53;6.65;;;;;;;27.48;54.71;101051.72;5035954;28;20037;-58
2023/08/18 01:00:56;;;;;;;6.30;5.38;;;;;;;27.49;55.06;101042.53;5033067;28;20056;-58
2023/08/18 01:03:24;;;;;;;6.60;5.97;;;;;;;27.50;54.77;101037.91;5034555;28;20053;-58
2023/08/18 01:05:52;;;;;;;6.57;5.90;;;;;;;27.50;54.91;101027.03;5039944;28;20084;-58
2023/08/18 01:08:19;;;;;;;6.88;6.18;;;;;;;27.50;55.14;101019.72;5041273;28;20057;-56
2023/08/18 01:11:05;;;;;;;7.13;6.18;;;;;;;27.51;54.74;101021.44;5048791;28;20048;-56
2023/08/18 01:13:33;;;;;;;7.97;6.10;;;;;;;27.52;55.03;101019.56;5032850;28;20508;-56
2023/08/18 01:16:06;;;;;;;7.10;6.45;;;;;;;27.53;54.90;101023.97;5043916;28;20402;-56
2023/08/18 01:18:34;;;;;;;7.40;6.07;;;;;;;27.52;55.04;101025.00;5037149;28;20049;-58
2023/08/18 01:21:03;;;;;;;6.32;5.72;;;;;;;27.54;55.01;101033.81;5049289;28;20049;-58
2023/08/18 01:23:41;;;;;;;6.40;5.80;;;;;;;27.53;54.66;101027.53;5037215;28;20041;-58
2023/08/18 01:26:08;;;;;;;6.78;5.82;;;;;;;27.54;54.77;101021.06;5045053;28;20052;-58
2023/08/18 01:28:36;;;;;;;7.03;6.30;;;;;;;27.54;54.63;101023.78;5036365;28;20049;-58
2023/08/18 01:31:08;;;;;;;6.47;5.88;;;;;;;27.56;54.88;101020.91;5048733;28;20053;-58
2023/08/18 01:33:45;;;;;;;6.22;5.63;;;;;;;27.57;54.90;101022.56;5042529;28;20045;-58
2023/08/18 01:36:18;;;;;;;10.70;6.85;;;;;;;27.57;54.55;101022.56;5036761;28;20049;-58
2023/08/18 01:38:48;;;;;;;7.00;6.22;;;;;;;27.58;54.60;101018.81;5033565;28;20045;-58
2023/08/18 01:41:23;;;;;;;8.45;6.40;;;;;;;27.58;54.62;101025.09;5032833;28;20060;-58
2023/08/18 01:43:51;;;;;;;5.93;5.32;;;;;;;27.58;54.90;101014.22;5033421;28;20056;-58
2023/08/18 01:46:18;;;;;;;6.78;5.82;;;;;;;27.59;54.65;101009.66;5038586;28;20048;-58
2023/08/18 01:48:46;;;;;;;5.57;5.07;;;;;;;27.59;54.78;101004.22;5036939;28;20052;-58
2023/08/18 01:51:13;;;;;;;6.28;5.68;;;;;;;27.59;54.94;101005.06;5043151;28;20049;-58
2023/08/18 01:53:40;;;;;;;6.25;5.50;;;;;;;27.61;54.56;101013.03;5045980;28;20063;-58
2023/08/18 01:56:08;;;;;;;6.68;5.97;;;;;;;27.60;54.44;101004.03;5036986;28;20511;-58
2023/08/18 01:58:35;;;;;;;6.18;5.68;;;;;;;27.61;54.87;101003.00;5046433;28;20419;-56
2023/08/18 02:01:03;;;;;;;7.30;5.25;;;;;;;27.61;54.59;100997.56;5032898;28;20064;-56
2023/08/18 02:03:30;;;;;;;5.72;5.03;;;;;;;27.61;54.63;101002.16;5033302;28;20041;-56
2023/08/18 02:05:57;;;;;;;6.35;5.20;;;;;;;27.61;54.39;101000.28;5033579;28;20496;-56
2023/08/18 02:08:25;;;;;;;5.90;4.80;;;;;;;27.63;54.50;100999.22;5030757;28;20065;-56
2023/08/18 02:11:01;;;;;;;5.82;5.05;;;;;;;27.63;54.52;100991.06;5033315;28;20053;-56
2023/08/18 02:13:32;;;;;;;6.10;5.32;;;;;;;27.63;54.30;100989.22;5033652;28;20052;-56
2023/08/18 02:16:00;;;;;;;5.88;5.28;;;;;;;27.63;54.52;100989.22;5032401;28;20049;-56
2023/08/18 02:18:27;;;;;;;6.05;5.40;;;;;;;27.64;54.27;100998.22;5031565;28;20527;-56
2023/08/18 02:20:59;;;;;;;5.93;5.32;;;;;;;27.64;54.27;100995.50;5033234;28;20041;-56
2023/08/18 02:23:29;;;;;;;5.47;4.97;;;;;;;27.64;54.38;100999.06;5034515;28;20061;-56
2023/08/18 02:26:03;;;;;;;7.13;5.93;;;;;;;27.65;54.19;100997.19;5033551;28;20045;-56
2023/08/18 02:28:33;;;;;;;6.28;5.07;;;;;;;27.66;54.21;101004.31;5033875;28;20050;-58
2023/08/18 02:31:04;;;;;;;5.78;4.90;;;;;;;27.65;54.52;100997.19;5032054;28;20060;-58
2023/08/18 02:33:33;;;;;;;5.13;4.50;;;;;;;27.66;54.31;100998.88;5046898;28;20044;-58
2023/08/18 02:36:01;;;;;;;7.10;4.55;;;;;;;27.66;53.94;101002.44;5046686;28;20068;-58
2023/08/18 02:38:31;;;;;;;5.38;4.80;;;;;;;27.66;53.98;100993.44;5045921;28;20517;-58
2023/08/18 02:40:58;;;;;;;5.68;5.07;;;;;;;27.66;54.27;100996.16;5042402;28;20045;-58
2023/08/18 02:43:26;;;;;;;5.10;4.60;;;;;;;27.67;53.88;100995.13;5052041;28;20040;-58
2023/08/18 02:45:59;;;;;;;6.50;4.60;;;;;;;27.66;54.14;100983.41;5054104;28;20048;-58
2023/08/18 02:48:29;;;;;;;4.95;4.45;;;;;;;27.67;53.77;100990.56;5044875;28;20435;-58
2023/08/18 02:51:04;;;;;;;5.20;4.65;;;;;;;27.67;53.87;100986.97;5035440;28;20056;-58
2023/08/18 02:53:32;;;;;;;6.70;5.00;;;;;;;27.68;54.02;100991.41;5040645;28;20064;-58
2023/08/18 02:56:01;;;;;;;5.18;4.68;;;;;;;27.67;53.76;100989.69;5048578;28;20508;-58
2023/08/18 02:58:29;;;;;;;5.38;4.47;;;;;;;27.69;53.65;100993.06;5035809;28;20053;-58
2023/08/18 03:01:02;;;;;;;4.40;4.00;;;;;;;27.69;53.77;100993.06;5035153;28;20053;-58
2023/08/18 03:03:32;;;;;;;4.90;4.40;;;;;;;27.69;53.70;100993.06;5037593;28;20045;-58
2023/08/18 03:06:04;;;;;;;5.32;4.40;;;;;;;27.68;53.91;100992.25;5036135;28;20050;-58
2023/08/18 03:08:32;;;;;;;5.37;4.43;;;;;;;27.69;53.51;100993.06;5048926;28;20076;-58
2023/08/18 03:11:01;;;;;;;5.80;4.78;;;;;;;27.71;53.73;100988.28;5039326;28;20285;-58
2023/08/18 03:13:29;;;;;;;6.70;4.40;;;;;;;27.70;53.86;100989.31;5040845;28;20045;-58
2023/08/18 03:15:57;;;;;;;4.88;4.35;;;;;;;27.71;53.86;100991.00;5051734;28;20048;-58
2023/08/18 03:18:24;;;;;;;5.95;4.43;;;;;;;27.71;53.51;100980.13;5041028;28;20045;-56
2023/08/18 03:20:59;;;;;;;4.82;4.32;;;;;;;27.71;53.36;100985.56;5050624;28;20052;-56
2023/08/18 03:23:28;;;;;;;5.13;4.30;;;;;;;27.71;53.34;100982.84;5035365;28;20045;-56
2023/08/18 03:26:03;;;;;;;6.38;4.70;;;;;;;27.71;53.54;100982.84;5044933;28;20057;-56
2023/08/18 03:28:35;;;;;;;6.15;4.93;;;;;;;27.71;53.30;100981.00;5038571;28;20057;-58
2023/08/18 03:31:07;;;;;;;4.32;3.90;;;;;;;27.72;53.32;100981.84;5050730;28;20041;-58
2023/08/18 03:33:35;;;;;;;4.75;4.25;;;;;;;27.72;53.66;100981.84;5043427;28;20064;-58
2023/08/18 03:36:07;;;;;;;4.97;3.75;;;;;;;27.72;53.13;100976.41;5040608;28;20065;-58
2023/08/18 03:38:36;;;;;;;6.15;4.53;;;;;;;27.72;53.19;100981.84;5035013;28;20057;-56
2023/08/18 03:41:05;;;;;;;4.68;4.28;;;;;;;27.72;53.28;100988.13;5039343;28;20052;-56
2023/08/18 03:43:33;;;;;;;5.88;4.47;;;;;;;27.73;53.26;100983.53;5045448;28;20056;-56
2023/08/18 03:46:20;;;;;;;5.13;4.35;;;;;;;27.73;53.21;100988.97;5048363;28;20060;-56
2023/08/18 03:48:50;;;;;;;5.25;4.43;;;;;;;27.73;52.95;100984.41;5049540;28;20057;-58
2023/08/18 03:51:18;;;;;;;4.45;3.78;;;;;;;27.73;52.88;100988.97;5043801;28;20049;-58
2023/08/18 03:53:45;;;;;;;5.13;3.60;;;;;;;27.74;53.16;100990.69;5041399;28;20057;-58
2023/08/18 03:56:13;;;;;;;4.90;3.88;;;;;;;27.74;53.24;100999.69;5034415;28;20054;-58
2023/08/18 03:58:40;;;;;;;4.45;4.05;;;;;;;27.73;53.04;101003.44;5034465;28;20045;-56
2023/08/18 04:01:09;;;;;;;5.38;4.15;;;;;;;27.74;53.27;100990.69;5034849;28;20042;-56
2023/08/18 04:03:41;;;;;;;4.65;4.18;;;;;;;27.73;53.10;100995.28;5035283;28;20124;-56
2023/08/18 04:06:12;;;;;;;4.55;4.00;;;;;;;27.74;53.36;100996.13;5036487;28;20049;-56
2023/08/18 04:08:42;;;;;;;5.53;4.03;;;;;;;27.74;53.23;100998.84;5040349;28;20048;-56
2023/08/18 04:11:13;;;;;;;4.22;3.65;;;;;;;27.74;53.32;100996.97;5043750;28;20124;-56
2023/08/18 04:13:40;;;;;;;5.88;3.97;;;;;;;27.74;52.98;100996.13;5049157;28;20406;-56
2023/08/18 04:16:08;;;;;;;5.07;3.90;;;;;;;27.75;52.79;100997.81;5037540;28;20053;-56
2023/08/18 04:18:37;;;;;;;4.80;4.18;;;;;;;27.75;52.78;101001.41;5046251;28;20415;-56
2023/08/18 04:21:05;;;;;;;5.63;3.30;;;;;;;27.76;53.01;101002.22;5045288;28;20056;-56
2023/08/18 04:23:33;;;;;;;4.13;3.40;;;;;;;27.75;53.20;100997.81;5038279;28;20057;-56
2023/08/18 04:26:01;;;;;;;4.28;3.47;;;;;;;27.76;53.26;100996.78;5037907;28;20045;-56
2023/08/18 04:28:29;;;;;;;4.57;4.00;;;;;;;27.76;52.92;101005.81;5046156;28;20407;-56
2023/08/18 04:30:58;;;;;;;4.13;3.58;;;;;;;27.76;52.92;101005.81;5044270;28;20535;-56
2023/08/18 04:33:33;;;;;;;5.18;4.13;;;;;;;27.76;52.94;101011.25;5036737;28;20415;-56
2023/08/18 04:36:01;;;;;;;4.32;3.88;;;;;;;27.76;53.17;101015.84;5037256;28;20080;-56
2023/08/18 04:38:31;;;;;;;4.18;3.75;;;;;;;27.77;52.93;101012.91;5045613;28;20053;-56
2023/08/18 04:41:01;;;;;;;5.18;3.33;;;;;;;27.77;53.14;101015.66;5032824;28;20056;-58
2023/08/18 04:43:30;;;;;;;4.00;3.25;;;;;;;27.76;53.11;101022.13;5034156;28;20416;-58
2023/08/18 04:45:58;;;;;;;5.35;3.85;;;;;;;27.76;52.94;101022.13;5042437;28;20057;-57
2023/08/18 04:48:26;;;;;;;5.03;3.72;;;;;;;27.74;52.37;101024.16;5033063;28;20049;-57
2023/08/18 04:50:53;;;;;;;5.28;4.18;;;;;;;27.72;52.07;101028.09;5035342;28;20061;-57
2023/08/18 04:53:21;;;;;;;4.80;3.50;;;;;;;27.68;51.57;101032.19;5035992;28;20049;-57
2023/08/18 04:55:48;;;;;;;6.20;4.03;;;;;;;27.65;51.49;101033.41;5032355;28;20057;-57
2023/08/18 04:58:16;;;;;;;4.25;3.60;;;;;;;27.62;51.49;101033.75;5033198;28;20049;-57
2023/08/18 05:00:44;;;;;;;4.72;3.60;;;;;;;27.60;51.37;101038.53;5032278;28;20065;-57
2023/08/18 05:03:14;;;;;;;4.63;4.07;;;;;;;27.55;51.49;101035.53;5034235;28;20041;-57
2023/08/18 05:06:08;;;;;;;7.55;4.25;;;;;;;27.53;51.62;101041.13;5034016;28;20517;-57
2023/08/18 05:08:36;;;;;;;4.75;3.78;;;;;;;27.52;51.52;101039.44;5032430;28;20045;-60
2023/08/18 05:11:05;;;;;;;7.25;4.47;;;;;;;27.50;51.34;101044.19;5033643;28;20052;-60
2023/08/18 05:13:34;;;;;;;6.03;4.00;;;;;;;27.50;51.62;101037.91;5033906;28;20048;-60
2023/08/18 05:16:03;;;;;;;6.68;3.67;;;;;;;27.50;51.35;101036.03;5043217;28;20052;-60
2023/08/18 05:18:31;;;;;;;5.72;3.70;;;;;;;27.51;52.11;101042.34;5039755;28;20045;-57
2023/08/18 05:21:00;;;;;;;6.38;3.88;;;;;;;27.50;52.07;101041.47;5034401;28;20037;-57
2023/08/18 05:23:29;;;;;;;5.57;4.32;;;;;;;27.50;51.85;101044.19;5034242;28;20053;-57
2023/08/18 05:25:57;;;;;;;4.32;3.55;;;;;;;27.50;52.17;101043.34;5052967;28;20119;-57
2023/08/18 05:28:28;;;;;;;8.82;4.30;;;;;;;27.50;52.31;101051.50;5038783;28;20053;-59
2023/08/18 05:30:56;;;;;;;7.13;4.15;;;;;;;27.49;52.17;101052.56;5034439;28;20059;-60
2023/08/18 05:33:23;;;;;;;4.20;3.80;;;;;;;27.49;52.35;101055.28;5033662;28;20060;-60
2023/08/18 05:35:51;;;;;;;4.25;3.58;;;;;;;27.47;52.31;101055.47;5044358;28;20059;-60
2023/08/18 05:38:18;;;;;;;4.85;4.05;;;;;;;27.47;52.66;101055.47;5038400;28;20048;-57
2023/08/18 05:40:48;;;;;;;5.72;3.50;;;;;;;27.46;52.71;101056.47;5043103;28;20045;-57
2023/08/18 05:43:18;;;;;;;5.25;3.95;;;;;;;27.46;52.74;101059.19;5034114;28;20049;-57
2023/08/18 05:45:47;;;;;;;7.72;4.00;;;;;;;27.46;52.86;101066.50;5033764;28;20041;-57
2023/08/18 05:48:14;;;;;;;4.63;3.33;;;;;;;27.45;53.08;101065.66;5033310;28;20415;-57
2023/08/18 05:50:42;;;;;;;4.88;3.75;;;;;;;27.45;52.86;101064.81;5049172;28;20053;-57
2023/08/18 05:53:09;;;;;;;7.57;4.07;;;;;;;27.44;52.72;101061.25;5033372;28;20045;-57
2023/08/18 05:55:36;;;;;;;6.47;4.07;;;;;;;27.45;52.74;101068.38;5033775;28;20046;-57
2023/08/18 05:58:04;;;;;;;6.18;4.13;;;;;;;27.45;52.92;101062.94;5033412;28;20041;-60
2023/08/18 06:00:31;;;;;;;4.30;3.58;;;;;;;27.46;52.72;101069.22;5033867;28;20056;-60
2023/08/18 06:02:59;;;;;;;5.88;4.05;;;;;;;27.46;52.42;101072.78;5033102;28;20045;-60
2023/08/18 06:05:28;;;;;;;5.72;4.22;;;;;;;27.46;52.47;101075.50;5032258;28;20056;-60
2023/08/18 06:07:56;;;;;;;4.20;3.80;;;;;;;27.46;52.42;101067.34;5032658;28;20042;-57
2023/08/18 06:10:24;;;;;;;5.30;3.53;;;;;;;27.46;52.30;101070.06;5033849;28;20403;-57
2023/08/18 06:12:51;;;;;;;4.70;3.60;;;;;;;27.48;51.99;101075.34;5044198;28;20052;-57
2023/08/18 06:15:20;;;;;;;4.90;4.05;;;;;;;27.48;51.67;101078.06;5047603;28;20049;-57
2023/08/18 06:17:49;;;;;;;4.65;3.63;;;;;;;27.49;51.91;101079.75;5052824;28;20049;-60
2023/08/18 06:20:16;;;;;;;5.65;4.45;;;;;;;27.48;51.85;101078.06;5056154;28;20041;-60
2023/08/18 06:22:44;;;;;;;5.60;3.38;;;;;;;27.49;52.04;101071.59;5056145;28;20052;-60
2023/08/18 06:25:11;;;;;;;6.70;3.97;;;;;;;27.50;51.92;101076.00;5056400;28;20435;-60
2023/08/18 06:27:39;;;;;;;5.15;3.40;;;;;;;27.49;51.59;101075.16;5055864;28;20052;-57
2023/08/18 06:30:07;;;;;;;5.53;3.95;;;;;;;27.50;51.37;101081.44;5040406;28;20056;-57
2023/08/18 06:32:34;;;;;;;5.90;3.75;;;;;;;27.50;51.38;101078.72;5056435;28;20052;-58
2023/08/18 06:35:02;;;;;;;4.95;3.85;;;;;;;27.50;51.02;101081.44;5055788;28;20053;-57
2023/08/18 06:37:29;;;;;;;5.97;3.95;;;;;;;27.51;51.27;101081.28;5055491;28;20415;-57
2023/08/18 06:39:57;;;;;;;5.22;4.63;;;;;;;27.53;51.79;101071.03;5040956;28;20052;-58
2023/08/18 06:42:24;;;;;;;6.10;4.15;;;;;;;27.54;51.74;101078.16;5055073;28;20049;-58
2023/08/18 06:44:52;;;;;;;6.47;3.70;;;;;;;27.54;51.62;101086.31;5049423;28;20399;-58
2023/08/18 06:47:19;;;;;;;4.90;3.90;;;;;;;27.52;51.65;101080.22;5055560;28;20055;-57
2023/08/18 06:49:47;;;;;;;5.47;3.92;;;;;;;27.51;51.25;101081.28;5047528;28;20042;-57
2023/08/18 06:52:14;;;;;;;6.05;3.88;;;;;;;27.51;51.21;101078.56;5055875;28;20095;-58
2023/08/18 06:54:42;;;;;;;6.03;4.15;;;;;;;27.50;50.61;101082.28;5054970;28;20502;-56
2023/08/18 06:57:09;;;;;;;5.43;3.72;;;;;;;27.49;50.62;101079.75;5055333;28;20048;-58
2023/08/18 06:59:36;;;;;;;5.18;3.75;;;;;;;27.49;51.09;101077.88;5055528;28;20037;-60
2023/08/18 07:02:04;;;;;;;4.95;4.07;;;;;;;27.48;51.29;101081.63;5044341;28;20041;-59
2023/08/18 07:04:31;;;;;;;5.70;3.85;;;;;;;27.49;51.21;101086.03;5040784;28;20472;-60
2023/08/18 07:06:59;;;;;;;6.68;3.92;;;;;;;27.50;51.24;101082.28;5036368;28;20052;-60
2023/08/18 07:09:26;;;;;;;6.10;4.78;;;;;;;27.51;50.95;101080.44;5040499;28;20045;-57
2023/08/18 07:11:53;;;;;;;6.22;4.05;;;;;;;27.51;50.89;101092.16;5055463;28;20049;-58
2023/08/18 07:14:21;;;;;;;4.45;3.85;;;;;;;27.52;50.94;101084.84;5055299;28;20411;-57
2023/08/18 07:16:49;;;;;;;6.53;4.25;;;;;;;27.52;50.72;101088.41;5051948;28;20045;-59
2023/08/18 07:19:16;;;;;;;7.32;4.43;;;;;;;27.54;50.93;101089.03;5035659;28;20495;-59
2023/08/18 07:21:44;;;;;;;9.32;4.78;;;;;;;27.56;51.19;101089.72;5035686;28;20064;-59
2023/08/18 07:24:11;;;;;;;5.50;4.78;;;;;;;27.58;51.03;101098.53;5034690;28;20431;-58
2023/08/18 07:26:38;;;;;;;7.40;4.70;;;;;;;27.59;51.10;101092.09;5053768;28;20049;-60
2023/08/18 07:29:06;;;;;;;8.45;5.40;;;;;;;27.60;51.28;101093.78;5054867;28;20383;-60
2023/08/18 07:31:33;;;;;;;6.70;4.57;;;;;;;27.61;51.23;101092.75;5055557;28;20045;-59
2023/08/18 07:34:00;;;;;;;7.13;4.35;;;;;;;27.62;51.33;101093.59;5054816;28;20041;-59
2023/08/18 07:36:28;;;;;;;8.65;5.30;;;;;;;27.61;51.24;101081.88;5054250;28;20075;-59
2023/08/18 07:38:55;;;;;;;6.13;5.03;;;;;;;27.63;51.40;101094.44;5035608;28;20041;-59
2023/08/18 07:41:23;;;;;;;5.72;4.63;;;;;;;27.64;51.24;101090.69;5033893;28;20442;-60
2023/08/18 07:43:50;;;;;;;6.05;4.57;;;;;;;27.66;51.20;101088.63;5035353;28;20131;-60
2023/08/18 07:46:18;;;;;;;6.60;5.22;;;;;;;27.66;51.76;101094.06;5035136;28;20521;-60
2023/08/18 07:48:45;;;;;;;6.88;5.30;;;;;;;27.67;51.33;101093.03;5035634;28;20033;-59
2023/08/18 07:51:13;;;;;;;7.85;5.03;;;;;;;27.67;51.73;101084.88;5039314;28;20050;-59
2023/08/18 07:53:40;;;;;;;6.45;5.10;;;;;;;27.68;51.78;101095.59;5047078;28;20396;-59
2023/08/18 07:56:08;;;;;;;7.70;5.30;;;;;;;27.69;51.76;101093.72;5054854;28;20048;-60
2023/08/18 07:58:35;;;;;;;8.98;5.53;;;;;;;27.69;51.55;101093.72;5054281;28;20051;-59
2023/08/18 08:01:03;;;;;;;7.88;6.07;;;;;;;27.69;51.38;101091.84;5045567;28;20050;-58
2023/08/18 08:03:32;;;;;;;8.48;6.03;;;;;;;27.70;51.58;101089.97;5047686;28;20471;-59
2023/08/18 08:05:59;;;;;;;8.48;5.40;;;;;;;27.71;51.38;101088.94;5040128;28;20052;-59
2023/08/18 08:08:26;;;;;;;9.68;5.80;;;;;;;27.72;51.70;101096.09;5038951;28;20049;-59
2023/08/18 08:10:54;;;;;;;5.93;5.22;;;;;;;27.72;51.40;101094.22;5046685;28;20404;-59
2023/08/18 08:13:21;;;;;;;10.38;5.57;;;;;;;27.72;51.71;101090.66;5046838;28;20048;-59
2023/08/18 08:15:49;;;;;;;7.55;5.75;;;;;;;27.71;51.57;101088.94;5050368;28;20045;-59
2023/08/18 08:18:18;;;;;;;7.18;6.22;;;;;;;27.71;51.54;101088.94;5038887;28;20041;-59
2023/08/18 08:20:45;;;;;;;7.85;6.18;;;;;;;27.70;51.12;101081.81;5046148;28;20407;-61
2023/08/18 08:23:12;;;;;;;8.70;6.22;;;;;;;27.72;51.17;101090.66;5046986;28;20049;-60
2023/08/18 08:25:40;;;;;;;8.38;5.95;;;;;;;27.72;51.41;101085.22;5038848;28;20399;-59
2023/08/18 08:28:07;;;;;;;7.80;5.75;;;;;;;27.74;51.77;101092.16;5038900;28;20048;-59
2023/08/18 08:30:35;;;;;;;7.95;6.00;;;;;;;27.76;51.69;101092.84;5046118;28;20046;-59
2023/08/18 08:33:04;;;;;;;7.68;5.82;;;;;;;27.77;51.95;101086.38;5047361;28;20045;-59
2023/08/18 08:35:32;;;;;;;7.28;5.70;;;;;;;27.78;52.18;101085.34;5037177;28;20500;-59
2023/08/18 08:38:00;;;;;;;6.80;5.50;;;;;;;27.80;51.94;101086.03;5034279;28;20060;-63
2023/08/18 08:40:28;;;;;;;7.90;5.68;;;;;;;27.82;52.03;101088.53;5044016;28;20108;-63
2023/08/18 08:42:57;;;;;;;7.93;5.50;;;;;;;27.83;52.12;101087.50;5045406;28;20052;-63
2023/08/18 08:45:27;;;;;;;8.98;6.43;;;;;;;27.85;52.12;101090.91;5037492;28;20042;-60
2023/08/18 08:47:58;;;;;;;8.63;7.30;;;;;;;27.85;52.40;101090.91;5053523;28;20479;-61
2023/08/18 08:50:32;;;;;;;8.18;7.38;;;;;;;27.85;52.65;101099.06;5044310;28;20049;-59
2023/08/18 08:53:01;;;;;;;8.60;7.80;;;;;;;27.86;52.92;101103.47;5047244;28;20049;-59
2023/08/18 08:55:31;;;;;;;9.40;7.72;;;;;;;27.86;52.84;101098.03;5037012;28;20491;-59
2023/08/18 08:58:00;;;;;;;9.50;8.60;;;;;;;27.85;52.84;101094.47;5045719;28;20447;-59
2023/08/18 09:00:28;;;;;;;8.20;7.25;;;;;;;27.87;53.09;101104.31;5044991;28;20398;-59
2023/08/18 09:03:01;;;;;;;9.27;8.38;;;;;;;27.88;53.49;101103.31;5037987;28;20045;-59
2023/08/18 09:05:30;;;;;;;9.48;8.25;;;;;;;27.88;53.35;101097.88;5037037;28;20516;-58
2023/08/18 09:07:58;;;;;;;9.32;8.43;;;;;;;27.88;53.23;101090.56;5033459;28;20045;-59
2023/08/18 09:10:27;;;;;;;10.65;9.38;;;;;;;27.91;53.56;101089.31;5033810;28;20518;-59
2023/08/18 09:12:55;;;;;;;10.07;9.07;;;;;;;27.92;53.42;101094.59;5033569;28;20052;-58
2023/08/18 09:15:23;;;;;;;10.20;8.02;;;;;;;27.93;53.58;101099.00;5033576;28;20045;-59
2023/08/18 09:17:51;;;;;;;10.30;8.85;;;;;;;27.95;53.21;101096.94;5034055;28;20046;-61
2023/08/18 09:20:19;;;;;;;12.93;9.27;;;;;;;27.96;53.77;101095.94;5034701;28;20056;-59
2023/08/18 09:22:46;;;;;;;11.10;7.80;;;;;;;27.98;53.83;101101.19;5033209;28;20059;-60
2023/08/18 09:25:14;;;;;;;10.32;9.32;;;;;;;27.98;53.91;101096.56;5035799;28;20052;-58
2023/08/18 09:27:42;;;;;;;10.52;9.52;;;;;;;28.00;53.56;101091.81;5044817;28;20041;-59
2023/08/18 09:30:10;;;;;;;11.60;10.43;;;;;;;28.00;53.76;101099.13;5033482;28;20045;-61
2023/08/18 09:32:38;;;;;;;12.18;10.02;;;;;;;28.01;53.84;101093.50;5034293;28;20484;-62
2023/08/18 09:35:10;;;;;;;11.25;10.23;;;;;;;28.01;53.62;101089.94;5033554;28;20416;-60
2023/08/18 09:37:38;;;;;;;;;;;;;;;28.00;53.72;101086.38;5033880;28;20060;-58
2023/08/18 09:40:06;;;;;;;12.00;9.82;;;;;;;28.02;53.66;101089.75;5033235;28;20379;-58
2023/08/18 09:42:33;;;;;;;10.38;9.38;;;;;;;28.03;53.85;101093.31;5033971;28;20049;-59
2023/08/18 09:45:01;;;;;;;11.57;10.35;;;;;;;28.05;54.08;101080.38;5033013;28;20072;-61
2023/08/18 09:47:29;;;;;;;12.70;9.85;;;;;;;28.06;54.10;101082.06;5033280;28;20048;-59
2023/08/18 09:49:59;;;;;;;11.27;10.18;;;;;;;28.07;54.08;101084.59;5033607;28;20041;-58
2023/08/18 09:52:33;;;;;;;10.88;9.88;;;;;;;28.07;53.63;101079.13;5033813;28;20049;-60
2023/08/18 09:55:11;;;;;;;10.25;9.25;;;;;;;28.09;54.11;101077.09;5033495;28;20050;-59
2023/08/18 09:58:00;;;;;;;11.75;10.23;;;;;;;28.10;53.92;101088.81;5033468;28;20049;-59
2023/08/18 10:00:30;;;;;;;11.68;10.48;;;;;;;28.09;53.87;101077.09;5033877;28;20045;-60
2023/08/18 10:03:00;;;;;;;12.38;10.00;;;;;;;28.11;54.09;101076.91;5035635;28;20053;-60
2023/08/18 10:05:27;;;;;;;11.13;10.02;;;;;;;28.12;53.95;101070.44;5041438;28;20057;-60
2023/08/18 10:07:55;;;;;;;10.82;9.80;;;;;;;28.12;53.98;101067.72;5031889;28;20053;-59
2023/08/18 10:10:24;;;;;;;11.80;9.65;;;;;;;28.13;54.06;101074.84;5032497;28;20068;-59
2023/08/18 10:12:52;;;;;;;12.20;10.75;;;;;;;28.14;54.22;101064.81;5033283;28;20049;-58
2023/08/18 10:15:20;;;;;;;13.57;10.27;;;;;;;28.15;54.07;101061.03;5035614;28;20487;-61
2023/08/18 10:17:48;;;;;;;12.15;11.05;;;;;;;28.16;54.16;101066.31;5032780;28;20045;-60
2023/08/18 10:20:15;;;;;;;11.90;10.70;;;;;;;28.18;54.42;101057.97;5032575;28;20046;-60
2023/08/18 10:22:43;;;;;;;12.10;10.95;;;;;;;28.19;54.15;101065.09;5032698;28;20045;-59
2023/08/18 10:25:23;;;;;;;10.90;9.90;;;;;;;28.19;54.36;101063.22;5032751;28;20049;-59
2023/08/18 10:27:51;;;;;;;11.70;10.52;;;;;;;28.20;54.47;101056.75;5032896;28;20057;-59
2023/08/18 10:30:26;;;;;;;11.48;10.38;;;;;;;28.21;54.42;101054.88;5039798;28;20050;-59
2023/08/18 10:33:03;;;;;;;11.02;10.02;;;;;;;28.22;54.33;101057.41;5040274;28;20042;-59
2023/08/18 10:35:31;;;;;;;12.60;11.40;;;;;;;28.24;53.94;101062.69;5047124;28;20049;-61
2023/08/18 10:38:05;;;;;;;11.90;10.80;;;;;;;28.26;53.93;101060.59;5048275;28;20376;-60
2023/08/18 10:40:34;;;;;;;12.38;11.18;;;;;;;28.26;54.51;101056.00;5043811;28;20041;-59
2023/08/18 10:43:02;;;;;;;11.77;10.57;;;;;;;28.27;54.98;101059.56;5038400;28;20049;-59
2023/08/18 10:45:30;;;;;;;13.45;10.88;;;;;;;28.25;55.08;101056.19;5039956;28;20049;-59
2023/08/18 10:47:59;;;;;;;12.30;10.95;;;;;;;28.26;55.54;101052.44;5051702;28;20403;-59
2023/08/18 10:50:32;;;;;;;11.80;10.70;;;;;;;28.25;55.72;101054.31;5043151;28;20049;-59
2023/08/18 10:53:01;;;;;;;11.88;10.70;;;;;;;28.26;55.55;101055.16;5046888;28;20045;-59
2023/08/18 10:55:30;;;;;;;10.77;9.82;;;;;;;28.26;56.05;101049.72;5036277;28;20376;-60
2023/08/18 10:57:58;;;;;;;11.10;10.00;;;;;;;28.27;56.18;101041.34;5047861;28;20049;-59
2023/08/18 11:00:31;;;;;;;11.95;10.85;;;;;;;28.27;55.92;101038.63;5045383;28;20049;-60
2023/08/18 11:02:59;;;;;;;11.95;10.70;;;;;;;28.29;55.53;101033.84;5052103;28;20505;-59
2023/08/18 11:05:32;;;;;;;13.50;12.10;;;;;;;28.33;55.89;101031.59;5039712;28;20057;-59
2023/08/18 11:08:01;;;;;;;11.80;10.77;;;;;;;28.35;55.98;101038.53;5047019;28;20049;-59
2023/08/18 11:10:29;;;;;;;12.68;11.55;;;;;;;28.35;55.96;101033.09;5038664;28;20038;-59
2023/08/18 11:12:58;;;;;;;11.55;10.55;;;;;;;28.35;56.57;101037.69;5037180;28;20055;-59
2023/08/18 11:15:26;;;;;;;12.35;11.15;;;;;;;28.33;57.15;101035.16;5041253;28;20057;-59
2023/08/18 11:17:53;;;;;;;13.25;12.05;;;;;;;28.32;57.40;101035.38;5037125;28;20060;-60
2023/08/18 11:20:21;;;;;;;13.13;11.38;;;;;;;28.31;57.47;101039.09;5036428;28;20042;-60
2023/08/18 11:22:53;;;;;;;12.35;11.18;;;;;;;28.30;57.78;101030.09;5037326;28;20056;-60
2023/08/18 11:25:22;;;;;;;13.13;11.93;;;;;;;28.28;57.45;101029.44;5036768;28;20053;-60
2023/08/18 11:27:52;;;;;;;13.68;12.38;;;;;;;28.28;57.19;101020.44;5040787;28;20049;-59
2023/08/18 11:30:21;;;;;;;12.50;11.30;;;;;;;28.29;57.42;101022.13;5036675;28;20042;-60